createdAt,value
2018-09-09T00:00:09.472Z,101100.78
2018-09-09T00:01:12.868Z,101101.35
2018-09-09T00:02:16.307Z,101098.59
2018-09-09T00:03:19.701Z,101102.73
2018-09-09T00:04:23.085Z,101096.83
2018-09-09T00:05:26.461Z,101104.36
2018-09-09T00:06:29.956Z,101100.21
2018-09-09T00:07:33.466Z,101089.01
2018-09-09T00:08:36.838Z,101094.69
2018-09-09T00:09:45.626Z,101097.72
2018-09-09T00:10:49.031Z,101097.45
2018-09-09T00:11:52.422Z,101090.30
2018-09-09T00:12:55.800Z,101096.81
2018-09-09T00:13:59.197Z,101099.57
2018-09-09T00:15:02.651Z,101104.53
2018-09-09T00:16:06.052Z,101105.67
2018-09-09T00:17:09.672Z,101098.19
2018-09-09T00:18:13.042Z,101097.05
2018-09-09T00:19:16.574Z,101100.05
2018-09-09T00:20:19.999Z,101094.19
2018-09-09T00:21:23.453Z,101100.63
2018-09-09T00:22:26.841Z,101108.01
2018-09-09T00:23:30.229Z,101102.81
2018-09-09T00:24:33.630Z,101103.95
2018-09-09T00:25:37.236Z,101101.43
2018-09-09T00:26:40.655Z,101096.48
2018-09-09T00:27:44.041Z,101098.09
2018-09-09T00:28:47.446Z,101083.16
2018-09-09T00:29:50.846Z,101094.05
2018-09-09T00:30:54.252Z,101105.58
2018-09-09T00:31:57.643Z,101110.30
2018-09-09T00:33:01.099Z,101101.59
2018-09-09T00:34:04.536Z,101110.63
2018-09-09T00:35:07.964Z,101107.86
2018-09-09T00:36:11.354Z,101105.67
2018-09-09T00:37:14.761Z,101101.59
2018-09-09T00:38:18.228Z,101086.81
2018-09-09T00:39:21.637Z,101087.53
2018-09-09T00:40:25.084Z,101097.95
2018-09-09T00:41:28.478Z,101099.34
2018-09-09T00:42:31.888Z,101100.72
2018-09-09T00:43:35.293Z,101097.72
2018-09-09T00:44:38.666Z,101089.25
2018-09-09T00:45:42.079Z,101097.95
2018-09-09T00:46:45.438Z,101093.57
2018-09-09T00:47:48.849Z,101093.57
2018-09-09T00:49:58.276Z,101095.43
2018-09-09T00:51:06.780Z,101095.43
2018-09-09T00:52:15.312Z,101092.66
2018-09-09T00:53:24.012Z,101096.23
2018-09-09T00:54:27.350Z,101092.09
2018-09-09T00:55:30.717Z,101093.23
2018-09-09T00:56:34.128Z,101092.42
2018-09-09T00:57:37.567Z,101094.62
2018-09-09T00:58:40.951Z,101086.90
2018-09-09T00:59:44.403Z,101092.42
2018-09-09T01:00:53.076Z,101092.19
2018-09-09T01:01:56.493Z,101093.57
2018-09-09T01:02:59.876Z,101096.33
2018-09-09T01:04:03.274Z,101097.95
2018-09-09T01:05:06.691Z,101099.34
2018-09-09T01:06:10.127Z,101102.41
2018-09-09T01:07:13.531Z,101106.81
2018-09-09T01:08:16.940Z,101103.24
2018-09-09T01:09:20.411Z,101101.45
2018-09-09T01:10:23.783Z,101103.24
2018-09-09T01:11:27.180Z,101101.86
2018-09-09T01:12:30.616Z,101097.45
2018-09-09T01:13:34.051Z,101091.68
2018-09-09T01:14:37.467Z,101088.58
2018-09-09T01:15:40.876Z,101086.16
2018-09-09T01:16:44.242Z,101086.39
2018-09-09T01:17:47.660Z,101085.91
2018-09-09T01:18:51.047Z,101080.39
2018-09-09T01:19:54.574Z,101081.53
2018-09-09T01:20:57.957Z,101076.34
2018-09-09T01:22:01.439Z,101079.91
2018-09-09T01:23:04.840Z,101079.34
2018-09-09T01:24:08.225Z,101072.77
2018-09-09T01:25:11.623Z,101056.61
2018-09-09T01:26:15.028Z,101064.47
2018-09-09T01:27:18.433Z,101064.47
2018-09-09T01:28:21.820Z,101064.47
2018-09-09T01:29:25.212Z,101058.70
2018-09-09T01:30:28.585Z,101050.84
2018-09-09T01:31:31.999Z,101054.33
2018-09-09T01:32:35.404Z,101053.52
2018-09-09T01:33:38.787Z,101054.33
2018-09-09T01:34:42.152Z,101050.75
2018-09-09T01:35:45.960Z,101051.33
2018-09-09T01:36:49.345Z,101050.75
2018-09-09T01:37:52.743Z,101052.70
2018-09-09T01:38:56.178Z,101058.80
2018-09-09T01:39:59.971Z,101071.48
2018-09-09T01:41:03.414Z,101084.48
2018-09-09T01:42:06.852Z,101103.25
2018-09-09T01:43:10.268Z,101103.83
2018-09-09T01:44:13.639Z,101112.92
2018-09-09T01:45:17.036Z,101094.16
2018-09-09T01:46:20.445Z,101098.30
2018-09-09T01:47:23.842Z,101105.45
2018-09-09T01:48:27.257Z,101106.59
2018-09-09T01:49:30.720Z,101107.73
2018-09-09T01:50:34.114Z,101107.40
2018-09-09T01:51:37.488Z,101103.83
2018-09-09T01:52:40.888Z,101094.48
2018-09-09T01:53:44.290Z,101105.20
2018-09-09T01:54:47.718Z,101111.87
2018-09-09T01:55:51.116Z,101112.69
2018-09-09T01:56:54.511Z,101109.92
2018-09-09T01:57:57.928Z,101114.87
2018-09-09T01:59:01.424Z,101110.73
2018-09-09T02:00:05.017Z,101106.34
2018-09-09T02:01:08.374Z,101115.21
2018-09-09T02:02:11.778Z,101114.40
2018-09-09T02:03:15.192Z,101116.02
2018-09-09T02:04:18.577Z,101120.50
2018-09-09T02:05:22.020Z,101116.92
2018-09-09T02:06:25.385Z,101115.55
2018-09-09T02:07:28.834Z,101110.25
2018-09-09T02:08:32.253Z,101113.59
2018-09-09T02:09:35.672Z,101105.30
2018-09-09T02:10:39.089Z,101113.59
2018-09-09T02:11:42.460Z,101110.02
2018-09-09T02:12:45.864Z,101109.20
2018-09-09T02:13:49.300Z,101110.02
2018-09-09T02:14:52.687Z,101102.30
2018-09-09T02:15:56.070Z,101102.88
2018-09-09T02:16:59.422Z,101098.73
2018-09-09T02:18:02.835Z,101094.82
2018-09-09T02:19:06.219Z,101094.82
2018-09-09T02:20:10.014Z,101091.81
2018-09-09T02:21:13.412Z,101092.96
2018-09-09T02:22:16.783Z,101090.44
2018-09-09T02:23:20.210Z,101087.91
2018-09-09T02:24:23.578Z,101091.48
2018-09-09T02:25:26.965Z,101084.67
2018-09-09T02:26:30.357Z,101088.24
2018-09-09T02:27:33.784Z,101091.88
2018-09-09T02:28:37.180Z,101086.35
2018-09-09T02:29:40.563Z,101096.84
2018-09-09T02:30:43.963Z,101098.48
2018-09-09T02:31:47.449Z,101099.87
2018-09-09T02:32:50.858Z,101085.06
2018-09-09T02:33:54.326Z,101088.81
2018-09-09T02:34:57.719Z,101090.77
2018-09-09T02:36:01.119Z,101090.77
2018-09-09T02:37:04.552Z,101089.38
2018-09-09T02:38:07.944Z,101093.20
2018-09-09T02:39:11.611Z,101089.05
2018-09-09T02:40:15.050Z,101090.44
2018-09-09T02:41:18.468Z,101090.10
2018-09-09T02:42:21.873Z,101090.58
2018-09-09T02:43:25.293Z,101090.01
2018-09-09T02:44:28.758Z,101090.82
2018-09-09T02:45:32.189Z,101089.77
2018-09-09T02:46:35.628Z,101094.39
2018-09-09T02:47:39.032Z,101089.91
2018-09-09T02:48:42.408Z,101093.82
2018-09-09T02:49:45.805Z,101094.39
2018-09-09T02:50:49.228Z,101087.44
2018-09-09T02:51:52.645Z,101095.53
2018-09-09T02:52:56.040Z,101085.23
2018-09-09T02:53:59.666Z,101097.83
2018-09-09T02:55:03.085Z,101099.20
2018-09-09T02:56:11.577Z,101092.30
2018-09-09T02:57:15.000Z,101094.07
2018-09-09T02:58:18.500Z,101099.53
2018-09-09T02:59:21.912Z,101104.49
2018-09-09T03:00:25.282Z,101100.67
2018-09-09T03:01:28.652Z,101093.53
2018-09-09T03:02:32.056Z,101105.39
2018-09-09T03:03:35.476Z,101111.48
2018-09-09T03:04:38.880Z,101117.02
2018-09-09T03:05:42.827Z,101112.03
2018-09-09T03:06:46.210Z,101117.31
2018-09-09T03:07:49.597Z,101116.17
2018-09-09T03:08:53.027Z,101115.70
2018-09-09T03:09:56.498Z,101117.31
2018-09-09T03:11:05.170Z,101113.74
2018-09-09T03:12:08.575Z,101118.22
2018-09-09T03:13:11.936Z,101111.31
2018-09-09T03:14:15.311Z,101116.03
2018-09-09T03:15:18.682Z,101108.55
2018-09-09T03:16:22.072Z,101105.55
2018-09-09T03:17:25.430Z,101105.55
2018-09-09T03:18:28.851Z,101105.55
2018-09-09T03:19:32.361Z,101103.59
2018-09-09T03:20:35.760Z,101113.59
2018-09-09T03:21:39.211Z,101116.93
2018-09-09T03:22:42.612Z,101112.88
2018-09-09T03:23:46.447Z,101104.34
2018-09-09T03:24:49.846Z,101116.12
2018-09-09T03:25:53.236Z,101114.17
2018-09-09T03:26:56.660Z,101103.92
2018-09-09T03:28:00.052Z,101103.69
2018-09-09T03:29:03.462Z,101101.73
2018-09-09T03:30:06.970Z,101099.78
2018-09-09T03:31:10.349Z,101102.21
2018-09-09T03:32:13.765Z,101111.64
2018-09-09T03:33:17.143Z,101115.78
2018-09-09T03:34:20.552Z,101110.83
2018-09-09T03:35:23.923Z,101107.27
2018-09-09T03:36:27.346Z,101108.55
2018-09-09T03:37:31.274Z,101099.78
2018-09-09T03:38:34.648Z,101095.40
2018-09-09T03:39:38.034Z,101085.48
2018-09-09T03:40:41.511Z,101085.73
2018-09-09T03:41:44.894Z,101085.73
2018-09-09T03:42:48.331Z,101099.55
2018-09-09T03:43:51.712Z,101102.64
2018-09-09T03:44:55.105Z,101102.55
2018-09-09T03:45:58.477Z,101105.49
2018-09-09T03:47:01.946Z,101114.98
2018-09-09T03:48:05.544Z,101106.69
2018-09-09T03:49:08.920Z,101104.26
2018-09-09T03:50:12.309Z,101107.17
2018-09-09T03:51:15.905Z,101098.73
2018-09-09T03:52:19.313Z,101102.78
2018-09-09T03:53:22.698Z,101088.88
2018-09-09T03:54:26.070Z,101086.69
2018-09-09T03:55:29.790Z,101078.82
2018-09-09T03:56:33.174Z,101083.59
2018-09-09T03:57:36.556Z,101096.02
2018-09-09T03:58:40.019Z,101087.16
2018-09-09T03:59:43.428Z,101082.55
2018-09-09T04:00:46.848Z,101081.40
2018-09-09T04:01:50.249Z,101082.55
2018-09-09T04:02:53.645Z,101075.16
2018-09-09T04:03:57.096Z,101081.97
2018-09-09T04:05:00.511Z,101083.20
2018-09-09T04:06:03.935Z,101096.12
2018-09-09T04:07:07.332Z,101097.98
2018-09-09T04:08:10.716Z,101093.45
2018-09-09T04:09:14.094Z,101094.97
2018-09-09T04:10:17.503Z,101102.45
2018-09-09T04:11:20.906Z,101105.78
2018-09-09T04:12:24.282Z,101117.65
2018-09-09T04:13:27.671Z,101107.73
2018-09-09T04:14:31.114Z,101105.55
2018-09-09T04:15:34.493Z,101104.16
2018-09-09T04:16:37.860Z,101101.73
2018-09-09T04:17:41.255Z,101098.97
2018-09-09T04:18:44.674Z,101100.11
2018-09-09T04:19:48.056Z,101089.55
2018-09-09T04:20:51.434Z,101092.39
2018-09-09T04:21:54.863Z,101090.78
2018-09-09T04:22:58.228Z,101089.39
2018-09-09T04:24:01.642Z,101099.64
2018-09-09T04:25:05.096Z,101093.88
2018-09-09T04:26:08.485Z,101081.32
2018-09-09T04:27:11.895Z,101091.68
2018-09-09T04:28:15.235Z,101094.11
2018-09-09T04:29:18.681Z,101100.20
2018-09-09T04:30:22.135Z,101091.92
2018-09-09T04:31:25.533Z,101099.06
2018-09-09T04:32:28.905Z,101095.16
2018-09-09T04:33:32.298Z,101086.63
2018-09-09T04:34:35.738Z,101086.30
2018-09-09T04:35:39.145Z,101082.97
2018-09-09T04:36:43.048Z,101074.67
2018-09-09T04:37:46.453Z,101071.58
2018-09-09T04:38:49.870Z,101076.30
2018-09-09T04:39:53.266Z,101078.25
2018-09-09T04:40:56.666Z,101083.78
2018-09-09T04:42:00.673Z,101082.25
2018-09-09T04:43:04.122Z,101091.83
2018-09-09T04:44:07.714Z,101082.02
2018-09-09T04:45:11.120Z,101097.35
2018-09-09T04:46:14.526Z,101094.34
2018-09-09T04:47:17.920Z,101092.82
2018-09-09T04:48:21.354Z,101102.64
2018-09-09T04:49:24.717Z,101099.64
2018-09-09T04:50:28.150Z,101100.20
2018-09-09T04:51:31.548Z,101109.88
2018-09-09T04:52:34.933Z,101101.73
2018-09-09T04:53:38.314Z,101109.40
2018-09-09T04:54:41.844Z,101109.64
2018-09-09T04:55:45.218Z,101106.88
2018-09-09T04:56:48.590Z,101100.90
2018-09-09T04:57:52.024Z,101104.44
2018-09-09T04:58:55.590Z,101098.91
2018-09-09T04:59:59.010Z,101101.11
2018-09-09T05:01:02.398Z,101085.47
2018-09-09T05:02:05.865Z,101094.20
2018-09-09T05:03:09.260Z,101103.30
2018-09-09T05:04:12.879Z,101108.31
2018-09-09T05:05:16.283Z,101114.92
2018-09-09T05:06:19.903Z,101122.70
2018-09-09T05:07:23.258Z,101116.30
2018-09-09T05:08:26.640Z,101118.73
2018-09-09T05:09:30.056Z,101123.69
2018-09-09T05:10:33.569Z,101125.16
2018-09-09T05:11:36.962Z,101133.93
2018-09-09T05:12:40.386Z,101130.83
2018-09-09T05:13:43.795Z,101130.02
2018-09-09T05:14:47.210Z,101133.12
2018-09-09T05:15:50.638Z,101137.50
2018-09-09T05:16:54.044Z,101144.41
2018-09-09T05:17:57.428Z,101143.59
2018-09-09T05:19:01.009Z,101135.75
2018-09-09T05:20:04.999Z,101147.74
2018-09-09T05:21:08.441Z,101151.64
2018-09-09T05:22:11.835Z,101150.17
2018-09-09T05:23:15.313Z,101139.33
2018-09-09T05:24:18.696Z,101139.22
2018-09-09T05:25:22.184Z,101142.70
2018-09-09T05:26:25.576Z,101147.56
2018-09-09T05:27:29.028Z,101135.37
2018-09-09T05:28:32.768Z,101143.84
2018-09-09T05:29:36.354Z,101135.52
2018-09-09T05:30:39.794Z,101149.33
2018-09-09T05:31:43.306Z,101146.75
2018-09-09T05:32:46.714Z,101147.41
2018-09-09T05:33:50.322Z,101148.55
2018-09-09T05:34:53.896Z,101148.87
2018-09-09T05:35:57.365Z,101152.77
2018-09-09T05:37:00.938Z,101148.12
2018-09-09T05:38:04.431Z,101145.69
2018-09-09T05:39:10.524Z,101137.73
2018-09-09T05:40:13.962Z,101130.77
2018-09-09T05:41:17.664Z,101125.47
2018-09-09T05:42:21.216Z,101139.84
2018-09-09T05:43:24.754Z,101143.50
2018-09-09T05:44:28.142Z,101141.87
2018-09-09T05:45:31.600Z,101138.22
2018-09-09T05:46:35.198Z,101138.55
2018-09-09T05:47:38.618Z,101137.34
2018-09-09T05:48:42.020Z,101137.99
2018-09-09T05:49:45.446Z,101137.32
2018-09-09T05:50:48.895Z,101132.78
2018-09-09T05:51:52.327Z,101135.95
2018-09-09T05:52:55.716Z,101138.36
2018-09-09T05:53:59.170Z,101137.88
2018-09-09T05:55:02.504Z,101143.31
2018-09-09T05:56:06.254Z,101156.07
2018-09-09T05:57:09.704Z,101161.59
2018-09-09T05:58:13.088Z,101159.91
2018-09-09T05:59:16.477Z,101162.67
2018-09-09T06:00:19.910Z,101160.97
2018-09-09T06:01:23.379Z,101158.78
2018-09-09T06:02:26.880Z,101155.21
2018-09-09T06:03:30.994Z,101154.97
2018-09-09T06:04:34.669Z,101156.72
2018-09-09T06:05:38.083Z,101154.53
2018-09-09T06:06:41.483Z,101154.61
2018-09-09T06:07:44.899Z,101151.13
2018-09-09T06:08:48.333Z,101150.47
2018-09-09T06:09:51.696Z,101154.85
2018-09-09T06:10:55.763Z,101151.20
2018-09-09T06:11:59.143Z,101146.25
2018-09-09T06:13:02.713Z,101158.83
2018-09-09T06:14:06.252Z,101162.11
2018-09-09T06:15:09.679Z,101158.78
2018-09-09T06:16:13.083Z,101154.34
2018-09-09T06:17:16.509Z,101155.97
2018-09-09T06:18:19.942Z,101155.21
2018-09-09T06:19:23.344Z,101160.27
2018-09-09T06:20:26.741Z,101164.41
2018-09-09T06:21:30.197Z,101168.30
2018-09-09T06:22:33.708Z,101170.02
2018-09-09T06:23:37.088Z,101168.95
2018-09-09T06:24:40.484Z,101171.63
2018-09-09T06:25:44.116Z,101170.02
2018-09-09T06:26:47.474Z,101176.02
2018-09-09T06:27:50.868Z,101180.40
2018-09-09T06:28:54.346Z,101183.97
2018-09-09T06:29:57.803Z,101186.41
2018-09-09T06:31:01.202Z,101185.27
2018-09-09T06:32:04.640Z,101184.53
2018-09-09T06:33:08.373Z,101194.36
2018-09-09T06:34:11.738Z,101195.09
2018-09-09T06:35:15.101Z,101195.91
2018-09-09T06:36:18.477Z,101185.27
2018-09-09T06:37:21.855Z,101192.01
2018-09-09T06:38:25.269Z,101192.01
2018-09-09T06:39:28.678Z,101187.87
2018-09-09T06:40:32.103Z,101189.49
2018-09-09T06:41:35.810Z,101190.06
2018-09-09T06:42:39.168Z,101194.20
2018-09-09T06:43:42.577Z,101189.77
2018-09-09T06:44:46.020Z,101188.95
2018-09-09T06:45:49.482Z,101188.11
2018-09-09T06:46:52.884Z,101180.89
2018-09-09T06:47:56.334Z,101192.66
2018-09-09T06:48:59.845Z,101186.89
2018-09-09T06:50:03.301Z,101189.98
2018-09-09T06:51:06.796Z,101187.95
2018-09-09T06:52:10.243Z,101185.19
2018-09-09T06:53:13.863Z,101190.46
2018-09-09T06:54:17.984Z,101180.05
2018-09-09T06:55:22.217Z,101182.19
2018-09-09T06:56:25.690Z,101184.38
2018-09-09T06:57:29.077Z,101191.52
2018-09-09T06:58:32.524Z,101189.56
2018-09-09T06:59:35.944Z,101189.00
2018-09-09T07:00:39.342Z,101184.22
2018-09-09T07:01:42.757Z,101181.78
2018-09-09T07:02:46.165Z,101192.49
2018-09-09T07:03:49.614Z,101188.59
2018-09-09T07:04:52.990Z,101191.19
2018-09-09T07:05:56.390Z,101194.52
2018-09-09T07:06:59.823Z,101188.44
2018-09-09T07:08:03.414Z,101193.14
2018-09-09T07:09:08.106Z,101193.14
2018-09-09T07:10:11.523Z,101186.56
2018-09-09T07:11:14.972Z,101189.57
2018-09-09T07:12:18.394Z,101191.52
2018-09-09T07:13:21.774Z,101190.70
2018-09-09T07:14:25.161Z,101177.64
2018-09-09T07:15:28.602Z,101189.08
2018-09-09T07:16:32.172Z,101189.08
2018-09-09T07:17:35.626Z,101185.27
2018-09-09T07:18:39.016Z,101191.27
2018-09-09T07:19:42.397Z,101185.52
2018-09-09T07:20:46.001Z,101182.75
2018-09-09T07:21:49.400Z,101185.75
2018-09-09T07:22:52.806Z,101185.27
2018-09-09T07:23:56.204Z,101176.58
2018-09-09T07:24:59.589Z,101183.89
2018-09-09T07:26:03.006Z,101182.51
2018-09-09T07:27:06.456Z,101185.02
2018-09-09T07:28:09.876Z,101183.32
2018-09-09T07:29:13.268Z,101179.75
2018-09-09T07:30:16.679Z,101182.27
2018-09-09T07:31:20.100Z,101177.31
2018-09-09T07:32:23.520Z,101181.45
2018-09-09T07:33:26.898Z,101183.08
2018-09-09T07:34:30.294Z,101182.02
2018-09-09T07:35:34.039Z,101177.88
2018-09-09T07:36:37.472Z,101178.70
2018-09-09T07:37:40.941Z,101184.70
2018-09-09T07:38:44.336Z,101182.84
2018-09-09T07:39:47.757Z,101190.55
2018-09-09T07:40:51.252Z,101184.53
2018-09-09T07:41:54.659Z,101200.20
2018-09-09T07:42:58.055Z,101200.45
2018-09-09T07:44:01.472Z,101189.33
2018-09-09T07:45:04.912Z,101197.44
2018-09-09T07:46:08.300Z,101209.05
2018-09-09T07:47:11.742Z,101209.05
2018-09-09T07:48:15.183Z,101212.63
2018-09-09T07:49:18.583Z,101208.73
2018-09-09T07:50:22.006Z,101211.24
2018-09-09T07:51:25.377Z,101201.50
2018-09-09T07:52:28.888Z,101216.77
2018-09-09T07:53:32.398Z,101214.00
2018-09-09T07:54:35.808Z,101216.19
2018-09-09T07:55:39.246Z,101214.00
2018-09-09T07:56:42.628Z,101221.71
2018-09-09T07:57:45.992Z,101219.77
2018-09-09T07:58:49.495Z,101222.77
2018-09-09T07:59:52.893Z,101221.39
2018-09-09T08:00:56.416Z,101221.62
2018-09-09T08:01:59.913Z,101219.69
2018-09-09T08:03:03.313Z,101217.98
2018-09-09T08:04:06.850Z,101227.88
2018-09-09T08:05:10.444Z,101220.73
2018-09-09T08:06:13.832Z,101225.94
2018-09-09T08:07:17.222Z,101223.98
2018-09-09T08:08:20.616Z,101220.41
2018-09-09T08:09:24.011Z,101229.51
2018-09-09T08:10:27.410Z,101220.25
2018-09-09T08:11:36.820Z,101232.54
2018-09-09T08:12:40.220Z,101224.27
2018-09-09T08:13:43.623Z,101215.87
2018-09-09T08:14:47.055Z,101222.31
2018-09-09T08:15:50.539Z,101225.08
2018-09-09T08:16:53.966Z,101216.23
2018-09-09T08:17:57.347Z,101211.52
2018-09-09T08:19:00.797Z,101208.80
2018-09-09T08:20:04.233Z,101211.19
2018-09-09T08:21:07.657Z,101202.75
2018-09-09T08:22:11.088Z,101214.28
2018-09-09T08:23:14.479Z,101211.19
2018-09-09T08:24:18.000Z,101214.77
2018-09-09T08:25:21.401Z,101212.25
2018-09-09T08:26:24.798Z,101212.25
2018-09-09T08:27:28.194Z,101206.33
2018-09-09T08:28:31.600Z,101207.54
2018-09-09T08:29:35.029Z,101210.55
2018-09-09T08:30:38.501Z,101205.84
2018-09-09T08:31:41.885Z,101210.22
2018-09-09T08:32:45.293Z,101208.27
2018-09-09T08:33:48.864Z,101209.41
2018-09-09T08:34:52.332Z,101199.75
2018-09-09T08:35:55.721Z,101208.27
2018-09-09T08:36:59.116Z,101209.66
2018-09-09T08:38:02.536Z,101209.09
2018-09-09T08:39:08.534Z,101209.89
2018-09-09T08:40:11.909Z,101209.66
2018-09-09T08:41:15.293Z,101211.44
2018-09-09T08:42:18.738Z,101213.23
2018-09-09T08:43:22.137Z,101213.80
2018-09-09T08:44:25.546Z,101215.17
2018-09-09T08:45:29.026Z,101215.17
2018-09-09T08:46:32.428Z,101217.69
2018-09-09T08:47:35.875Z,101213.55
2018-09-09T08:48:39.250Z,101225.97
2018-09-09T08:49:42.651Z,101212.81
2018-09-09T08:50:46.070Z,101219.64
2018-09-09T08:51:49.555Z,101229.30
2018-09-09T08:52:52.946Z,101225.73
2018-09-09T08:53:56.365Z,101232.63
2018-09-09T08:54:59.805Z,101224.75
2018-09-09T08:56:03.301Z,101219.80
2018-09-09T08:57:06.744Z,101238.47
2018-09-09T08:58:10.145Z,101236.77
2018-09-09T08:59:13.558Z,101234.57
2018-09-09T09:00:16.932Z,101231.08
2018-09-09T09:01:20.331Z,101230.84
2018-09-09T09:02:23.738Z,101230.19
2018-09-09T09:03:27.140Z,101224.75
2018-09-09T09:04:30.566Z,101224.50
2018-09-09T09:05:34.017Z,101230.19
2018-09-09T09:06:37.371Z,101236.52
2018-09-09T09:07:40.818Z,101231.56
2018-09-09T09:08:44.341Z,101237.09
2018-09-09T09:09:47.767Z,101238.71
2018-09-09T09:10:51.171Z,101233.77
2018-09-09T09:11:54.576Z,101235.14
2018-09-09T09:12:57.938Z,101236.28
2018-09-09T09:14:01.375Z,101235.14
2018-09-09T09:15:04.872Z,101237.33
2018-09-09T09:16:08.290Z,101232.14
2018-09-09T09:17:11.793Z,101232.95
2018-09-09T09:18:15.201Z,101221.91
2018-09-09T09:19:18.604Z,101231.81
2018-09-09T09:20:21.986Z,101228.00
2018-09-09T09:21:25.353Z,101228.00
2018-09-09T09:22:28.797Z,101228.00
2018-09-09T09:23:32.415Z,101230.19
2018-09-09T09:24:35.802Z,101233.52
2018-09-09T09:25:43.374Z,101229.95
2018-09-09T09:26:46.798Z,101230.19
2018-09-09T09:27:50.182Z,101226.62
2018-09-09T09:28:53.597Z,101232.38
2018-09-09T09:29:57.600Z,101231.81
2018-09-09T09:31:01.044Z,101234.57
2018-09-09T09:32:04.656Z,101228.33
2018-09-09T09:33:08.099Z,101234.25
2018-09-09T09:34:11.523Z,101235.39
2018-09-09T09:35:14.911Z,101229.78
2018-09-09T09:36:18.335Z,101229.22
2018-09-09T09:37:22.881Z,101230.84
2018-09-09T09:38:26.424Z,101231.09
2018-09-09T09:39:29.952Z,101232.47
2018-09-09T09:40:33.463Z,101238.23
2018-09-09T09:41:37.046Z,101232.38
2018-09-09T09:42:40.414Z,101230.52
2018-09-09T09:43:43.816Z,101228.77
2018-09-09T09:44:47.283Z,101222.43
2018-09-09T09:45:50.632Z,101214.20
2018-09-09T09:46:54.056Z,101222.91
2018-09-09T09:47:57.452Z,101223.97
2018-09-09T09:49:00.971Z,101224.78
2018-09-09T09:50:04.524Z,101218.45
2018-09-09T09:51:07.948Z,101219.27
2018-09-09T09:52:11.401Z,101222.27
2018-09-09T09:53:14.883Z,101219.50
2018-09-09T09:54:18.272Z,101220.88
2018-09-09T09:55:21.875Z,101220.88
2018-09-09T09:56:25.308Z,101225.02
2018-09-09T09:57:28.715Z,101228.59
2018-09-09T09:58:32.156Z,101226.65
2018-09-09T09:59:35.586Z,101232.41
2018-09-09T10:00:44.471Z,101231.03
2018-09-09T10:01:47.876Z,101220.64
2018-09-09T10:02:51.248Z,101225.75
2018-09-09T10:03:54.642Z,101221.86
2018-09-09T10:04:58.080Z,101228.62
2018-09-09T10:06:01.507Z,101218.44
2018-09-09T10:07:04.966Z,101228.45
2018-09-09T10:08:08.360Z,101230.33
2018-09-09T10:09:11.781Z,101221.71
2018-09-09T10:10:15.165Z,101226.66
2018-09-09T10:11:18.585Z,101226.58
2018-09-09T10:12:22.079Z,101225.77
2018-09-09T10:13:25.745Z,101222.44
2018-09-09T10:14:29.145Z,101223.25
2018-09-09T10:15:32.620Z,101219.34
2018-09-09T10:16:36.059Z,101217.73
2018-09-09T10:17:39.529Z,101223.49
2018-09-09T10:18:42.942Z,101221.06
2018-09-09T10:19:46.369Z,101230.40
2018-09-09T10:20:49.780Z,101224.39
2018-09-09T10:21:53.200Z,101228.77
2018-09-09T10:22:56.632Z,101232.34
2018-09-09T10:24:00.313Z,101237.58
2018-09-09T10:25:03.736Z,101238.69
2018-09-09T10:26:07.144Z,101234.25
2018-09-09T10:27:10.552Z,101227.91
2018-09-09T10:28:13.971Z,101229.29
2018-09-09T10:29:17.380Z,101233.67
2018-09-09T10:30:20.816Z,101236.68
2018-09-09T10:31:24.360Z,101233.67
2018-09-09T10:32:27.936Z,101227.02
2018-09-09T10:33:31.463Z,101222.63
2018-09-09T10:34:34.960Z,101228.64
2018-09-09T10:35:39.094Z,101221.48
2018-09-09T10:36:42.538Z,101224.25
2018-09-09T10:37:45.918Z,101215.97
2018-09-09T10:38:49.357Z,101228.06
2018-09-09T10:39:52.739Z,101224.73
2018-09-09T10:40:56.195Z,101226.12
2018-09-09T10:41:59.658Z,101226.12
2018-09-09T10:43:03.056Z,101222.88
2018-09-09T10:44:06.504Z,101227.17
2018-09-09T10:45:09.944Z,101220.50
2018-09-09T10:46:13.483Z,101222.45
2018-09-09T10:47:16.837Z,101221.56
2018-09-09T10:48:20.332Z,101222.12
2018-09-09T10:49:23.747Z,101221.56
2018-09-09T10:50:27.136Z,101214.66
2018-09-09T10:51:30.573Z,101216.84
2018-09-09T10:52:33.954Z,101216.52
2018-09-09T10:53:37.333Z,101220.34
2018-09-09T10:54:40.715Z,101220.00
2018-09-09T10:55:44.302Z,101221.39
2018-09-09T10:56:47.679Z,101220.82
2018-09-09T10:57:51.079Z,101220.82
2018-09-09T10:58:54.550Z,101213.67
2018-09-09T10:59:57.920Z,101221.91
2018-09-09T11:01:01.381Z,101223.28
2018-09-09T11:02:04.871Z,101221.91
2018-09-09T11:03:08.250Z,101226.86
2018-09-09T11:04:11.745Z,101224.96
2018-09-09T11:05:15.132Z,101225.77
2018-09-09T11:06:18.604Z,101216.11
2018-09-09T11:07:22.075Z,101224.39
2018-09-09T11:08:25.700Z,101220.82
2018-09-09T11:09:29.204Z,101221.15
2018-09-09T11:10:32.716Z,101212.95
2018-09-09T11:11:36.148Z,101217.48
2018-09-09T11:12:39.671Z,101211.39
2018-09-09T11:13:43.053Z,101219.44
2018-09-09T11:14:46.402Z,101220.00
2018-09-09T11:15:49.844Z,101216.67
2018-09-09T11:16:53.315Z,101210.34
2018-09-09T11:17:56.824Z,101209.77
2018-09-09T11:19:00.288Z,101203.44
2018-09-09T11:20:03.732Z,101199.62
2018-09-09T11:21:07.319Z,101201.48
2018-09-09T11:22:10.786Z,101202.86
2018-09-09T11:23:14.290Z,101198.72
2018-09-09T11:24:17.825Z,101200.10
2018-09-09T11:25:21.233Z,101197.91
2018-09-09T11:26:24.656Z,101204.48
2018-09-09T11:27:28.063Z,101202.30
2018-09-09T11:28:31.539Z,101200.34
2018-09-09T11:29:35.232Z,101198.42
2018-09-09T11:30:38.648Z,101191.52
2018-09-09T11:31:42.238Z,101192.33
2018-09-09T11:32:45.625Z,101189.23
2018-09-09T11:33:49.073Z,101194.22
2018-09-09T11:34:52.511Z,101189.51
2018-09-09T11:35:56.133Z,101193.89
2018-09-09T11:36:59.536Z,101193.89
2018-09-09T11:38:03.064Z,101197.47
2018-09-09T11:39:08.276Z,101196.66
2018-09-09T11:40:11.802Z,101198.28
2018-09-09T11:41:15.237Z,101197.47
2018-09-09T11:42:18.672Z,101196.66
2018-09-09T11:43:22.195Z,101199.91
2018-09-09T11:44:25.660Z,101199.09
2018-09-09T11:45:29.158Z,101197.14
2018-09-09T11:46:33.080Z,101185.72
2018-09-09T11:47:36.501Z,101193.00
2018-09-09T11:48:39.924Z,101189.51
2018-09-09T11:49:43.392Z,101194.61
2018-09-09T11:50:46.835Z,101196.56
2018-09-09T11:51:50.436Z,101190.47
2018-09-09T11:52:53.854Z,101186.33
2018-09-09T11:53:57.548Z,101189.09
2018-09-09T11:55:01.033Z,101192.42
2018-09-09T11:56:04.539Z,101189.09
2018-09-09T11:57:08.036Z,101186.33
2018-09-09T11:58:11.712Z,101186.33
2018-09-09T11:59:15.197Z,101181.95
2018-09-09T12:00:18.663Z,101179.75
2018-09-09T12:01:22.111Z,101180.89
2018-09-09T12:02:25.668Z,101179.75
2018-09-09T12:03:29.143Z,101186.66
2018-09-09T12:04:32.901Z,101190.80
2018-09-09T12:05:36.281Z,101187.23